createdAt,value
2019-06-26T00:00:18.834Z,100927.28
2019-06-26T00:02:47.271Z,100924.67
2019-06-26T00:05:15.742Z,100928.72
2019-06-26T00:07:44.177Z,100928.43
2019-06-26T00:10:15.724Z,100928.05
2019-06-26T00:12:44.833Z,100928.28
2019-06-26T00:15:14.586Z,100931.81
2019-06-26T00:17:43.024Z,100933.93
2019-06-26T00:20:11.972Z,100938.01
2019-06-26T00:22:40.387Z,100941.22
2019-06-26T00:25:09.860Z,100941.63
2019-06-26T00:27:38.306Z,100946.47
2019-06-26T00:30:11.397Z,100948.63
2019-06-26T00:32:39.823Z,100955.72
2019-06-26T00:35:08.266Z,100947.56
2019-06-26T00:37:36.679Z,100955.87
2019-06-26T00:40:06.649Z,100956.48
2019-06-26T00:42:35.297Z,100958.73
2019-06-26T00:45:05.539Z,100959.92
2019-06-26T00:47:34.045Z,100960.75
2019-06-26T00:50:02.543Z,100964.91
2019-06-26T00:52:30.965Z,100954.48
2019-06-26T00:54:59.384Z,100958.55
2019-06-26T00:57:27.816Z,100956.06
2019-06-26T00:59:56.233Z,100957.66
2019-06-26T01:02:24.667Z,100952.82
2019-06-26T01:04:54.725Z,100957.12
2019-06-26T01:07:23.163Z,100956.13
2019-06-26T01:09:51.562Z,100955.91
2019-06-26T01:12:19.979Z,100957.56
2019-06-26T01:14:48.420Z,100951.00
2019-06-26T01:17:16.834Z,100954.48
2019-06-26T01:19:45.292Z,100954.70
2019-06-26T01:22:13.718Z,100956.82
2019-06-26T01:24:42.130Z,100956.66
2019-06-26T01:27:10.579Z,100957.42
2019-06-26T01:29:38.985Z,100951.88
2019-06-26T01:32:07.464Z,100959.06
2019-06-26T01:34:35.895Z,100955.29
2019-06-26T01:37:04.309Z,100950.52
2019-06-26T01:39:32.763Z,100949.63
2019-06-26T01:42:01.202Z,100950.69
2019-06-26T01:44:29.678Z,100955.59
2019-06-26T01:46:58.153Z,100954.53
2019-06-26T01:49:26.546Z,100954.90
2019-06-26T01:51:54.970Z,100958.02
2019-06-26T01:54:23.424Z,100956.36
2019-06-26T01:56:51.837Z,100958.91
2019-06-26T01:59:20.249Z,100962.39
2019-06-26T02:01:48.673Z,100964.05
2019-06-26T02:04:17.090Z,100968.69
2019-06-26T02:06:45.528Z,100962.85
2019-06-26T02:09:13.938Z,100968.27
2019-06-26T02:11:42.390Z,100968.88
2019-06-26T02:14:10.792Z,100966.95
2019-06-26T02:16:39.218Z,100967.69
2019-06-26T02:19:09.285Z,100967.80
2019-06-26T02:21:37.696Z,100965.34
2019-06-26T02:24:06.144Z,100965.05
2019-06-26T02:26:34.564Z,100957.84
2019-06-26T02:29:03.066Z,100962.75
2019-06-26T02:31:31.469Z,100957.09
2019-06-26T02:33:59.926Z,100961.20
2019-06-26T02:36:28.345Z,100960.67
2019-06-26T02:38:56.787Z,100962.37
2019-06-26T02:41:25.267Z,100967.42
2019-06-26T02:43:53.863Z,100967.34
2019-06-26T02:46:22.269Z,100973.38
2019-06-26T02:48:50.660Z,100974.35
2019-06-26T02:51:19.110Z,100972.50
2019-06-26T02:53:47.552Z,100977.02
2019-06-26T02:56:15.976Z,100975.98
2019-06-26T02:58:44.400Z,100978.07
2019-06-26T03:01:12.858Z,100985.09
2019-06-26T03:03:41.269Z,100983.34
2019-06-26T03:06:09.716Z,100986.09
2019-06-26T03:08:38.126Z,100979.72
2019-06-26T03:11:06.566Z,100990.37
2019-06-26T03:13:34.987Z,100986.50
2019-06-26T03:16:03.437Z,100992.25
2019-06-26T03:18:31.864Z,100997.02
2019-06-26T03:21:00.303Z,100999.52
2019-06-26T03:23:28.720Z,100998.91
2019-06-26T03:25:57.132Z,101000.88
2019-06-26T03:28:25.586Z,101004.13
2019-06-26T03:30:54.054Z,101001.25
2019-06-26T03:33:22.489Z,101005.27
2019-06-26T03:35:50.929Z,101007.89
2019-06-26T03:38:19.336Z,101008.94
2019-06-26T03:40:47.746Z,101014.88
2019-06-26T03:43:16.181Z,101022.11
2019-06-26T03:45:44.660Z,101022.94
2019-06-26T03:48:13.100Z,101029.50
2019-06-26T03:50:41.543Z,101025.65
2019-06-26T03:53:10.033Z,101024.08
2019-06-26T03:55:38.470Z,101024.38
2019-06-26T03:58:06.925Z,101023.94
2019-06-26T04:00:42.980Z,101031.59
2019-06-26T04:03:11.582Z,101033.48
2019-06-26T04:05:40.003Z,101028.58
2019-06-26T04:08:08.498Z,101028.00
2019-06-26T04:10:37.033Z,101030.23
2019-06-26T04:13:05.648Z,101033.20
2019-06-26T04:15:42.162Z,101034.78
2019-06-26T04:18:04.615Z,101033.73
2019-06-26T04:20:33.059Z,101032.51
2019-06-26T04:23:01.495Z,101030.77
2019-06-26T04:25:29.977Z,101037.63
2019-06-26T04:27:58.392Z,101033.64
2019-06-26T04:30:26.841Z,101035.42
2019-06-26T04:32:55.275Z,101038.83
2019-06-26T04:35:23.687Z,101033.63
2019-06-26T04:37:52.316Z,101032.88
2019-06-26T04:40:20.906Z,101040.33
2019-06-26T04:42:49.340Z,101032.80
2019-06-26T04:45:18.589Z,101036.70
2019-06-26T04:47:47.284Z,101042.91
2019-06-26T04:50:16.439Z,101051.04
2019-06-26T04:52:44.881Z,101052.09
2019-06-26T04:55:13.976Z,101052.53
2019-06-26T04:57:42.391Z,101050.34
2019-06-26T05:00:11.781Z,101063.38
2019-06-26T05:02:40.204Z,101061.10
2019-06-26T05:05:09.271Z,101062.16
2019-06-26T05:07:37.685Z,101064.76
2019-06-26T05:10:09.165Z,101059.64
2019-06-26T05:12:37.588Z,101061.91
2019-06-26T05:15:08.076Z,101064.44
2019-06-26T05:17:36.590Z,101072.14
2019-06-26T05:20:09.973Z,101073.80
2019-06-26T05:22:38.342Z,101082.81
2019-06-26T05:25:07.910Z,101083.28
2019-06-26T05:27:36.704Z,101087.09
2019-06-26T05:30:10.234Z,101082.73
2019-06-26T05:32:38.911Z,101089.22
2019-06-26T05:35:11.499Z,101085.88
2019-06-26T05:37:40.095Z,101082.45
2019-06-26T05:40:13.785Z,101083.67
2019-06-26T05:42:42.237Z,101085.14
2019-06-26T05:45:12.864Z,101092.61
2019-06-26T05:47:41.378Z,101098.69
2019-06-26T05:50:11.977Z,101097.19
2019-06-26T05:52:42.757Z,101100.58
2019-06-26T05:55:11.497Z,101098.55
2019-06-26T05:57:41.910Z,101097.19
2019-06-26T06:00:11.870Z,101096.17
2019-06-26T06:02:40.316Z,101093.83
2019-06-26T06:05:09.671Z,101094.55
2019-06-26T06:07:38.164Z,101093.03
2019-06-26T06:10:07.979Z,101096.32
2019-06-26T06:12:36.486Z,101095.70
2019-06-26T06:15:08.615Z,101097.48
2019-06-26T06:17:37.206Z,101099.44
2019-06-26T06:20:07.046Z,101103.62
2019-06-26T06:22:35.558Z,101106.19
2019-06-26T06:25:05.031Z,101103.80
2019-06-26T06:27:33.458Z,101106.06
2019-06-26T06:30:01.869Z,101113.80
2019-06-26T06:32:30.324Z,101106.57
2019-06-26T06:34:58.774Z,101108.00
2019-06-26T06:37:27.174Z,101109.99
2019-06-26T06:39:55.609Z,101114.67
2019-06-26T06:42:24.073Z,101112.28
2019-06-26T06:44:52.563Z,101119.52
2019-06-26T06:47:20.996Z,101115.73
2019-06-26T06:49:49.407Z,101125.29
2019-06-26T06:52:17.809Z,101128.91
2019-06-26T06:54:46.265Z,101128.74
2019-06-26T06:57:14.669Z,101128.84
2019-06-26T06:59:43.088Z,101137.30
2019-06-26T07:02:11.533Z,101132.99
2019-06-26T07:04:39.947Z,101141.19
2019-06-26T07:07:08.353Z,101135.21
2019-06-26T07:09:36.782Z,101139.06
2019-06-26T07:12:05.442Z,101142.37
2019-06-26T07:14:33.881Z,101144.34
2019-06-26T07:17:02.319Z,101145.20
2019-06-26T07:19:30.750Z,101147.75
2019-06-26T07:21:59.161Z,101148.05
2019-06-26T07:24:27.611Z,101151.10
2019-06-26T07:26:56.024Z,101153.35
2019-06-26T07:29:25.543Z,101147.45
2019-06-26T07:31:54.010Z,101151.40
2019-06-26T07:34:22.657Z,101154.09
2019-06-26T07:36:51.069Z,101159.16
2019-06-26T07:39:19.520Z,101155.20
2019-06-26T07:41:47.949Z,101158.22
2019-06-26T07:44:18.345Z,101166.39
2019-06-26T07:46:46.844Z,101168.64
2019-06-26T07:49:15.289Z,101170.56
2019-06-26T07:51:43.703Z,101173.12
2019-06-26T07:54:12.119Z,101173.71
2019-06-26T07:56:40.560Z,101168.36
2019-06-26T07:59:08.951Z,101167.89
2019-06-26T08:01:37.447Z,101172.36
2019-06-26T08:04:05.781Z,101167.06
2019-06-26T08:06:34.235Z,101175.92
2019-06-26T08:09:02.712Z,101168.87
2019-06-26T08:11:32.726Z,101168.70
2019-06-26T08:14:01.145Z,101168.41
2019-06-26T08:16:29.548Z,101166.21
2019-06-26T08:18:57.953Z,101165.44
2019-06-26T08:21:26.385Z,101164.61
2019-06-26T08:23:54.842Z,101170.66
2019-06-26T08:26:23.273Z,101174.77
2019-06-26T08:28:51.694Z,101175.66
2019-06-26T08:31:20.108Z,101176.89
2019-06-26T08:33:48.543Z,101179.97
2019-06-26T08:36:16.954Z,101176.85
2019-06-26T08:38:45.437Z,101173.44
2019-06-26T08:41:13.945Z,101177.88
2019-06-26T08:43:42.347Z,101174.40
2019-06-26T08:46:10.756Z,101170.61
2019-06-26T08:48:40.731Z,101173.70
2019-06-26T08:51:09.297Z,101179.58
2019-06-26T08:53:37.737Z,101178.40
2019-06-26T08:56:06.308Z,101174.41
2019-06-26T08:58:34.877Z,101177.19
2019-06-26T09:01:03.333Z,101172.23
2019-06-26T09:03:31.706Z,101169.52
2019-06-26T09:06:00.315Z,101172.69
2019-06-26T09:08:29.155Z,101168.35
2019-06-26T09:10:57.628Z,101168.75
2019-06-26T09:13:26.041Z,101171.31
2019-06-26T09:15:54.439Z,101160.92
2019-06-26T09:18:34.932Z,101160.45
2019-06-26T09:20:53.037Z,101163.27
2019-06-26T09:23:21.448Z,101165.39
2019-06-26T09:25:50.689Z,101167.34
2019-06-26T09:28:19.144Z,101166.91
2019-06-26T09:30:47.580Z,101161.09
2019-06-26T09:33:18.999Z,101163.28
2019-06-26T09:35:47.548Z,101165.58
2019-06-26T09:38:16.031Z,101159.58
2019-06-26T09:40:44.468Z,101157.48
2019-06-26T09:43:13.041Z,101161.58
2019-06-26T09:45:41.586Z,101163.32
2019-06-26T09:48:10.062Z,101161.05
2019-06-26T09:50:38.542Z,101164.39
2019-06-26T09:53:07.185Z,101157.86
2019-06-26T09:55:35.585Z,101165.90
2019-06-26T09:58:04.086Z,101167.92
2019-06-26T10:00:32.832Z,101166.86
2019-06-26T10:03:02.524Z,101168.01
2019-06-26T10:05:30.909Z,101167.30
2019-06-26T10:07:59.377Z,101175.49
2019-06-26T10:10:27.877Z,101172.77
2019-06-26T10:12:56.289Z,101172.59
2019-06-26T10:15:24.921Z,101172.67
2019-06-26T10:17:53.330Z,101163.14
2019-06-26T10:20:21.953Z,101168.14
2019-06-26T10:22:50.422Z,101166.05
2019-06-26T10:25:19.076Z,101164.94
2019-06-26T10:27:47.561Z,101160.27
2019-06-26T10:30:17.317Z,101155.95
2019-06-26T10:32:45.781Z,101166.13
2019-06-26T10:35:14.806Z,101162.56
2019-06-26T10:37:43.228Z,101160.50
2019-06-26T10:40:15.834Z,101161.12
2019-06-26T10:42:42.080Z,101164.95
2019-06-26T10:45:11.085Z,101162.50
2019-06-26T10:47:40.114Z,101162.02
2019-06-26T10:50:09.042Z,101163.61
2019-06-26T10:52:37.632Z,101160.36
2019-06-26T10:55:07.491Z,101162.08
2019-06-26T10:57:36.290Z,101153.09
2019-06-26T11:00:10.013Z,101155.59
2019-06-26T11:02:38.607Z,101153.69
2019-06-26T11:05:08.360Z,101148.45
2019-06-26T11:07:37.122Z,101145.50
2019-06-26T11:10:09.855Z,101144.75
2019-06-26T11:12:38.411Z,101140.75
2019-06-26T11:15:08.345Z,101139.95
2019-06-26T11:17:37.529Z,101133.12
2019-06-26T11:20:08.123Z,101140.55
2019-06-26T11:22:36.833Z,101130.16
2019-06-26T11:25:09.583Z,101127.97
2019-06-26T11:27:38.013Z,101129.37
2019-06-26T11:30:11.338Z,101126.93
2019-06-26T11:32:39.771Z,101117.94
2019-06-26T11:35:09.379Z,101119.86
2019-06-26T11:37:38.007Z,101117.92
2019-06-26T11:40:07.559Z,101125.59
2019-06-26T11:42:36.123Z,101114.94
2019-06-26T11:45:07.507Z,101123.14
2019-06-26T11:47:36.244Z,101115.75
2019-06-26T11:50:09.259Z,101114.13
2019-06-26T11:52:37.975Z,101108.73
2019-06-26T11:55:08.930Z,101112.30
2019-06-26T11:57:38.223Z,101107.94
2019-06-26T12:00:18.284Z,101109.88
2019-06-26T12:02:51.875Z,101104.39
2019-06-26T12:05:22.363Z,101107.66
2019-06-26T12:07:50.787Z,101105.76
2019-06-26T12:10:19.739Z,101105.76
2019-06-26T12:12:48.176Z,101100.31
2019-06-26T12:15:17.995Z,101107.97
2019-06-26T12:17:46.424Z,101094.55
2019-06-26T12:20:19.300Z,101096.46
2019-06-26T12:22:45.475Z,101095.08
2019-06-26T12:25:14.125Z,101092.89
2019-06-26T12:27:42.706Z,101091.52
2019-06-26T12:30:11.518Z,101085.51
2019-06-26T12:32:42.709Z,101097.01
2019-06-26T12:35:10.898Z,101096.75
2019-06-26T12:37:39.345Z,101100.02
2019-06-26T12:40:08.357Z,101094.80
2019-06-26T12:42:36.912Z,101087.67
2019-06-26T12:45:07.374Z,101082.19
2019-06-26T12:47:35.890Z,101086.59
2019-06-26T12:50:06.750Z,101081.09
2019-06-26T12:52:35.169Z,101088.23
2019-06-26T12:55:05.053Z,101079.46
2019-06-26T12:57:33.560Z,101083.30
2019-06-26T13:00:02.812Z,101083.30
2019-06-26T13:02:31.386Z,101074.55
2019-06-26T13:04:59.915Z,101066.58
2019-06-26T13:07:29.847Z,101067.14
2019-06-26T13:10:09.185Z,101061.94
2019-06-26T13:12:40.315Z,101059.19
2019-06-26T13:15:11.948Z,101057.60
2019-06-26T13:17:46.969Z,101060.02
2019-06-26T13:20:20.975Z,101050.20
2019-06-26T13:22:54.166Z,101051.56
2019-06-26T13:25:28.425Z,101052.66
2019-06-26T13:28:03.558Z,101048.83
2019-06-26T13:30:41.010Z,101045.80
2019-06-26T13:33:11.954Z,101044.41
2019-06-26T13:35:44.338Z,101046.09
2019-06-26T13:38:14.782Z,101047.18
2019-06-26T13:40:46.487Z,101037.83
2019-06-26T13:43:18.833Z,101042.50
2019-06-26T13:45:49.558Z,101036.20
2019-06-26T13:48:17.982Z,101035.36
2019-06-26T13:50:46.557Z,101038.38
2019-06-26T13:53:15.040Z,101033.45
2019-06-26T13:55:43.523Z,101026.58
2019-06-26T13:58:12.106Z,101032.34
2019-06-26T14:00:40.506Z,101030.17
2019-06-26T14:03:08.997Z,101026.59
2019-06-26T14:05:37.425Z,101026.59
2019-06-26T14:08:05.872Z,101026.05
2019-06-26T14:10:34.319Z,101024.95
2019-06-26T14:13:02.819Z,101024.41
2019-06-26T14:15:31.257Z,101021.66
2019-06-26T14:17:59.674Z,101020.01
2019-06-26T14:20:28.114Z,101015.37
2019-06-26T14:22:56.562Z,101014.27
2019-06-26T14:25:24.975Z,101007.97
2019-06-26T14:27:53.503Z,101006.84
2019-06-26T14:30:22.368Z,101007.96
2019-06-26T14:32:50.849Z,100999.22
2019-06-26T14:35:21.547Z,101002.23
2019-06-26T14:37:49.980Z,100995.36
2019-06-26T14:40:18.488Z,101000.28
2019-06-26T14:42:46.924Z,100994.78
2019-06-26T14:45:16.305Z,100997.81
2019-06-26T14:47:44.736Z,101001.38
2019-06-26T14:50:13.575Z,100998.89
2019-06-26T14:52:45.685Z,100996.44
2019-06-26T14:55:12.527Z,101000.28
2019-06-26T14:57:40.948Z,100995.08
2019-06-26T15:00:10.551Z,100993.97
2019-06-26T15:02:39.335Z,100999.17
2019-06-26T15:05:08.343Z,100995.37
2019-06-26T15:07:36.824Z,100996.98
2019-06-26T15:10:08.873Z,100993.69
2019-06-26T15:12:37.455Z,100991.22
2019-06-26T15:15:06.696Z,100989.58
2019-06-26T15:17:35.177Z,100983.27
2019-06-26T15:20:04.659Z,100987.41
2019-06-26T15:22:33.108Z,100976.44
2019-06-26T15:25:01.610Z,100982.19
2019-06-26T15:27:30.036Z,100973.14
2019-06-26T15:29:58.459Z,100970.69
2019-06-26T15:32:26.889Z,100972.33
2019-06-26T15:34:55.341Z,100972.87
2019-06-26T15:37:24.126Z,100964.66
2019-06-26T15:39:52.557Z,100969.31
2019-06-26T15:42:21.079Z,100972.59
2019-06-26T15:44:49.498Z,100968.47
2019-06-26T15:47:17.935Z,100966.02
2019-06-26T15:49:46.347Z,100968.20
2019-06-26T15:52:15.632Z,100958.91
2019-06-26T15:54:44.192Z,100960.81
2019-06-26T15:57:13.445Z,100956.70
2019-06-26T15:59:41.864Z,100956.97
2019-06-26T16:02:10.430Z,100956.70
2019-06-26T16:04:38.888Z,100951.48
2019-06-26T16:07:07.399Z,100946.30
2019-06-26T16:09:35.861Z,100948.21
2019-06-26T16:12:04.372Z,100940.81
2019-06-26T16:14:32.823Z,100943.83
2019-06-26T16:17:02.905Z,100938.61
2019-06-26T16:19:31.375Z,100941.06
2019-06-26T16:21:59.786Z,100938.89
2019-06-26T16:24:30.235Z,100938.61
2019-06-26T16:26:58.650Z,100938.91
2019-06-26T16:29:27.098Z,100927.93
2019-06-26T16:31:55.509Z,100930.67
2019-06-26T16:34:23.947Z,100931.77
2019-06-26T16:36:52.384Z,100928.75
2019-06-26T16:39:22.426Z,100928.47
2019-06-26T16:41:50.875Z,100921.58
2019-06-26T16:44:19.292Z,100920.00
2019-06-26T16:46:47.838Z,100925.14
2019-06-26T16:49:16.268Z,100918.87
2019-06-26T16:51:44.713Z,100920.23
2019-06-26T16:54:13.140Z,100922.95
2019-06-26T16:56:41.596Z,100920.23
2019-06-26T16:59:10.429Z,100913.91
2019-06-26T17:01:38.829Z,100910.36
2019-06-26T17:04:07.312Z,100913.09
2019-06-26T17:06:35.754Z,100909.52
2019-06-26T17:09:06.064Z,100904.05
2019-06-26T17:11:34.495Z,100910.06
2019-06-26T17:14:03.026Z,100908.16
2019-06-26T17:16:31.429Z,100911.73
2019-06-26T17:18:59.866Z,100907.61
2019-06-26T17:21:28.303Z,100911.19
2019-06-26T17:23:56.734Z,100907.89
2019-06-26T17:26:25.168Z,100912.56
2019-06-26T17:28:53.605Z,100909.00
2019-06-26T17:31:22.073Z,100911.45
2019-06-26T17:33:50.479Z,100908.44
2019-06-26T17:36:18.900Z,100908.70
2019-06-26T17:38:47.402Z,100903.23
2019-06-26T17:41:15.829Z,100909.78
2019-06-26T17:43:44.236Z,100906.78
2019-06-26T17:46:12.685Z,100902.66
2019-06-26T17:48:41.086Z,100903.47
2019-06-26T17:51:09.611Z,100899.67
2019-06-26T17:53:37.998Z,100896.91
2019-06-26T17:56:06.523Z,100898.83
2019-06-26T17:58:34.936Z,100902.39
2019-06-26T18:01:03.372Z,100901.84
2019-06-26T18:03:31.825Z,100902.66
2019-06-26T18:06:00.310Z,100899.36
2019-06-26T18:08:31.108Z,100901.81
2019-06-26T18:11:01.053Z,100902.66
2019-06-26T18:13:31.111Z,100908.12
2019-06-26T18:16:01.210Z,100900.72
2019-06-26T18:18:31.346Z,100897.70
2019-06-26T18:21:01.992Z,100900.98
2019-06-26T18:23:37.933Z,100906.72
2019-06-26T18:26:13.045Z,100908.37
2019-06-26T18:28:36.284Z,100907.80
2019-06-26T18:31:05.613Z,100911.61
2019-06-26T18:33:35.856Z,100909.69
2019-06-26T18:36:06.014Z,100907.49
2019-06-26T18:38:35.730Z,100910.49
2019-06-26T18:41:07.346Z,100911.61
2019-06-26T18:43:37.549Z,100909.14
2019-06-26T18:46:08.931Z,100912.69
2019-06-26T18:48:38.935Z,100914.59
2019-06-26T18:51:09.084Z,100919.51
2019-06-26T18:53:52.663Z,100924.41
2019-06-26T18:56:12.675Z,100924.71
2019-06-26T18:58:42.699Z,100929.90
2019-06-26T19:01:13.269Z,100938.66
2019-06-26T19:03:43.885Z,100936.17
2019-06-26T19:06:13.986Z,100936.98
2019-06-26T19:08:43.812Z,100944.91
2019-06-26T19:11:14.522Z,100943.01
2019-06-26T19:13:43.809Z,100947.11
2019-06-26T19:16:15.688Z,100942.45
2019-06-26T19:18:46.033Z,100945.44
2019-06-26T19:21:19.046Z,100945.70
2019-06-26T19:23:51.507Z,100951.72
2019-06-26T19:26:23.046Z,100952.52
2019-06-26T19:28:54.404Z,100947.34
2019-06-26T19:31:25.682Z,100948.71
2019-06-26T19:33:56.158Z,100953.33
2019-06-26T19:36:31.038Z,100958.52
2019-06-26T19:39:02.739Z,100961.52
2019-06-26T19:41:32.723Z,100971.63
2019-06-26T19:44:04.411Z,100974.08
2019-06-26T19:46:34.301Z,100972.72
2019-06-26T19:49:06.968Z,100979.28
2019-06-26T19:51:37.132Z,100984.18
2019-06-26T19:54:08.298Z,100980.34
2019-06-26T19:56:39.083Z,100987.72
2019-06-26T19:59:10.124Z,100993.73
2019-06-26T20:01:40.605Z,100999.72
2019-06-26T20:04:13.986Z,101001.34
2019-06-26T20:06:46.974Z,101005.38
2019-06-26T20:09:15.706Z,101002.94
2019-06-26T20:11:44.134Z,101006.47
2019-06-26T20:14:12.572Z,101015.22
2019-06-26T20:16:41.058Z,101010.81
2019-06-26T20:19:09.760Z,101011.61
2019-06-26T20:21:38.970Z,101009.98
2019-06-26T20:24:08.260Z,101016.25
2019-06-26T20:26:37.008Z,101016.77
2019-06-26T20:29:05.530Z,101017.02
2019-06-26T20:31:34.002Z,101021.41
2019-06-26T20:34:02.444Z,101016.20
2019-06-26T20:36:30.876Z,101017.53
2019-06-26T20:38:59.301Z,101019.70
2019-06-26T20:41:27.731Z,101025.95
2019-06-26T20:43:56.256Z,101024.59
2019-06-26T20:46:24.665Z,101026.75
2019-06-26T20:48:53.072Z,101028.09
2019-06-26T20:51:22.777Z,101029.46
2019-06-26T20:53:52.245Z,101028.89
2019-06-26T20:56:25.678Z,101028.57
2019-06-26T20:58:54.449Z,101031.55
2019-06-26T21:01:24.443Z,101025.23
2019-06-26T21:03:53.384Z,101033.69
2019-06-26T21:06:23.521Z,101039.41
2019-06-26T21:08:54.442Z,101037.75
2019-06-26T21:11:24.540Z,101039.88
2019-06-26T21:13:54.519Z,101040.13
2019-06-26T21:16:24.390Z,101040.63
2019-06-26T21:18:54.785Z,101036.00
2019-06-26T21:21:25.118Z,101042.25
2019-06-26T21:23:55.457Z,101040.31
2019-06-26T21:26:25.624Z,101040.02
2019-06-26T21:28:56.701Z,101039.16
2019-06-26T21:31:28.516Z,101042.56
2019-06-26T21:33:59.530Z,101055.72
2019-06-26T21:36:29.646Z,101065.72
2019-06-26T21:39:00.634Z,101065.60
2019-06-26T21:41:35.365Z,101067.16
2019-06-26T21:44:05.662Z,101068.23
2019-06-26T21:46:37.317Z,101080.45
2019-06-26T21:49:07.963Z,101080.08
2019-06-26T21:51:58.608Z,101087.92
2019-06-26T21:54:31.136Z,101090.36
2019-06-26T21:57:02.146Z,101087.05
2019-06-26T21:59:33.614Z,101083.78
2019-06-26T22:02:05.503Z,101083.48
2019-06-26T22:04:38.198Z,101092.39
2019-06-26T22:07:09.735Z,101091.27
2019-06-26T22:09:41.738Z,101095.02
2019-06-26T22:12:13.023Z,101093.65
2019-06-26T22:14:44.039Z,101100.70
2019-06-26T22:17:14.974Z,101098.52
2019-06-26T22:19:46.427Z,101097.97
2019-06-26T22:22:17.733Z,101103.42
2019-06-26T22:24:47.803Z,101101.77
2019-06-26T22:27:18.162Z,101101.19
2019-06-26T22:29:49.089Z,101092.95
2019-06-26T22:32:23.121Z,101105.44
2019-06-26T22:34:53.932Z,101104.45
2019-06-26T22:37:23.816Z,101112.33
2019-06-26T22:39:54.063Z,101120.14
2019-06-26T22:42:25.190Z,101112.48
2019-06-26T22:44:55.272Z,101112.19
2019-06-26T22:47:25.370Z,101112.14
2019-06-26T22:49:56.244Z,101114.91
2019-06-26T22:52:26.581Z,101109.95
2019-06-26T22:54:58.250Z,101113.48
2019-06-26T22:57:29.110Z,101112.89
2019-06-26T22:59:59.866Z,101113.97
2019-06-26T23:02:50.753Z,101113.09
2019-06-26T23:05:20.974Z,101110.47
2019-06-26T23:07:50.717Z,101116.40
2019-06-26T23:10:21.582Z,101119.61
2019-06-26T23:12:52.084Z,101115.23
2019-06-26T23:15:22.146Z,101115.23
2019-06-26T23:17:52.510Z,101109.83
2019-06-26T23:20:22.778Z,101110.88
2019-06-26T23:22:53.430Z,101110.00
2019-06-26T23:25:23.755Z,101112.14
2019-06-26T23:27:54.556Z,101109.95
2019-06-26T23:30:24.260Z,101113.20
2019-06-26T23:32:53.463Z,101113.98
2019-06-26T23:35:23.802Z,101116.09
2019-06-26T23:37:53.459Z,101115.27
2019-06-26T23:40:24.508Z,101119.90
2019-06-26T23:42:54.833Z,101117.12
2019-06-26T23:45:24.939Z,101123.45
2019-06-26T23:47:55.600Z,101125.29
2019-06-26T23:50:26.070Z,101119.31
2019-06-26T23:52:56.227Z,101124.27
2019-06-26T23:55:26.419Z,101120.94
2019-06-26T23:57:59.456Z,101126.13
